Tulpehocken, Pennsylvania
Current Conditions -  °F | °C
As of 11:54 AM on Saturday 25 Oct 2014 (Local Time) from KRDG Reporting Station
Clear Clear  
Wind Chill: 65°   Ceiling: Unl
Heat Index: 65°   Visibility: 10mi
Dew Point: 42°   Wind: 12mph
Humidity: 43%   Direction: 260°W
Pressure: 29.84"   Gusts: NA
Location:  40.4577°N, 76.2444°W
Report Text: KRDG 251554Z AUTO 26010KT 10SM CLR 18/06 A2984 RMK AO2 SLP110 T01830056
Loading
Personal Weather Stations






























Interactive Weather Map
Tropical Storm Tracking
New forecast layout! Learn more

10-Day Weather Forecast

Advertisements
Track Severe Weather on mobile